createdAt,value
2018-04-16T00:01:37.631Z,8.83
2018-04-16T00:04:12.333Z,7.57
2018-04-16T00:06:47.095Z,8.60
2018-04-16T00:09:21.736Z,7.67
2018-04-16T00:11:56.525Z,8.00
2018-04-16T00:14:30.858Z,8.00
2018-04-16T00:17:06.359Z,7.47
2018-04-16T00:19:41.007Z,7.37
2018-04-16T00:22:15.767Z,7.70
2018-04-16T00:24:50.471Z,8.10
2018-04-16T00:27:25.984Z,7.33
2018-04-16T00:30:00.666Z,7.70
2018-04-16T00:32:40.841Z,8.37
2018-04-16T00:35:22.021Z,7.77
2018-04-16T00:38:01.933Z,7.57
2018-04-16T00:40:41.995Z,7.03
2018-04-16T00:43:22.334Z,7.90
2018-04-16T00:46:02.542Z,6.83
2018-04-16T00:48:43.722Z,7.43
2018-04-16T00:51:23.895Z,7.93
2018-04-16T00:54:09.969Z,8.43
2018-04-16T00:56:50.703Z,7.90
2018-04-16T00:59:31.627Z,8.20
2018-04-16T01:02:11.453Z,7.90
2018-04-16T01:04:52.314Z,7.77
2018-04-16T01:07:31.869Z,8.00
2018-04-16T01:10:11.800Z,8.40
2018-04-16T01:12:52.039Z,7.93
2018-04-16T01:15:32.185Z,7.70
2018-04-16T01:18:12.627Z,7.40
2018-04-16T01:20:52.675Z,8.47
2018-04-16T01:23:32.554Z,8.47
2018-04-16T01:26:12.741Z,7.87
2018-04-16T01:28:53.669Z,8.13
2018-04-16T01:31:34.587Z,7.93
2018-04-16T01:34:15.542Z,7.50
2018-04-16T01:36:55.449Z,7.83
2018-04-16T01:39:36.310Z,8.00
2018-04-16T01:42:16.207Z,6.70
2018-04-16T01:44:56.050Z,8.40
2018-04-16T01:47:36.372Z,7.60
2018-04-16T01:50:16.238Z,8.27
2018-04-16T01:52:56.136Z,7.90
2018-04-16T01:55:36.942Z,7.37
2018-04-16T01:58:29.886Z,8.33
2018-04-16T02:01:10.690Z,6.90
2018-04-16T02:03:50.782Z,7.60
2018-04-16T02:06:31.171Z,8.30
2018-04-16T02:09:11.431Z,8.37
2018-04-16T02:11:51.439Z,8.23
2018-04-16T02:14:31.474Z,8.43
2018-04-16T02:17:11.602Z,8.93
2018-04-16T02:19:51.553Z,8.40
2018-04-16T02:22:32.510Z,8.00
2018-04-16T02:25:12.586Z,8.60
2018-04-16T02:27:52.719Z,8.20
2018-04-16T02:30:32.778Z,9.30
2018-04-16T02:33:13.914Z,8.33
2018-04-16T02:35:54.964Z,8.60
2018-04-16T02:38:35.078Z,8.10
2018-04-16T02:41:15.834Z,8.87
2018-04-16T02:43:56.830Z,8.80
2018-04-16T02:46:36.671Z,9.37
2018-04-16T02:49:17.668Z,8.17
2018-04-16T02:51:57.769Z,7.67
2018-04-16T02:54:37.587Z,8.60
2018-04-16T02:57:18.606Z,8.80
2018-04-16T02:59:58.504Z,8.63
2018-04-16T03:02:38.591Z,8.80
2018-04-16T03:05:18.613Z,8.40
2018-04-16T03:07:58.749Z,8.13
2018-04-16T03:10:38.862Z,8.60
2018-04-16T03:13:18.976Z,8.53
2018-04-16T03:15:59.918Z,8.43
2018-04-16T03:18:40.203Z,8.90
2018-04-16T03:21:20.270Z,9.10
2018-04-16T03:24:01.202Z,8.70
2018-04-16T03:26:56.772Z,9.40
2018-04-16T03:29:36.880Z,9.90
2018-04-16T03:32:16.726Z,8.73
2018-04-16T03:34:57.565Z,9.67
2018-04-16T03:37:37.749Z,11.03
2018-04-16T03:40:18.035Z,9.03
2018-04-16T03:42:58.045Z,9.20
2018-04-16T03:45:38.267Z,10.00
2018-04-16T03:48:18.467Z,9.67
2018-04-16T03:50:58.832Z,9.70
2018-04-16T03:53:50.960Z,10.07
2018-04-16T03:56:25.641Z,9.50
2018-04-16T03:59:00.246Z,9.90
2018-04-16T04:01:34.995Z,9.20
2018-04-16T04:04:09.497Z,9.97
2018-04-16T04:06:44.115Z,9.67
2018-04-16T04:09:18.722Z,10.40
2018-04-16T04:11:53.333Z,10.10
2018-04-16T04:14:28.688Z,9.47
2018-04-16T04:17:03.234Z,10.00
2018-04-16T04:19:38.639Z,10.53
2018-04-16T04:22:13.299Z,10.03
2018-04-16T04:24:59.169Z,10.43
2018-04-16T04:27:54.855Z,11.17
2018-04-16T04:30:31.811Z,9.90
2018-04-16T04:33:06.647Z,10.40
2018-04-16T04:35:41.307Z,10.80
2018-04-16T04:38:16.991Z,11.20
2018-04-16T04:40:51.701Z,10.70
2018-04-16T04:43:26.412Z,11.10
2018-04-16T04:46:00.946Z,11.63
2018-04-16T04:48:36.359Z,11.40
2018-04-16T04:51:11.948Z,11.50
2018-04-16T04:53:41.002Z,11.20
2018-04-16T04:56:11.765Z,10.50
2018-04-16T04:58:40.904Z,11.63
2018-04-16T05:01:10.187Z,11.00
2018-04-16T05:03:38.958Z,11.00
2018-04-16T05:06:08.120Z,10.90
2018-04-16T05:08:37.427Z,10.43
2018-04-16T05:11:08.271Z,10.73
2018-04-16T05:13:38.756Z,11.00
2018-04-16T05:16:07.850Z,10.80
2018-04-16T05:18:37.058Z,11.07
2018-04-16T05:21:06.218Z,10.07
2018-04-16T05:23:35.522Z,10.37
2018-04-16T05:26:04.810Z,9.90
2018-04-16T05:28:33.931Z,10.60
2018-04-16T05:31:03.938Z,11.53
2018-04-16T05:33:33.076Z,10.57
2018-04-16T05:36:02.125Z,11.23
2018-04-16T05:38:31.237Z,10.77
2018-04-16T05:41:00.168Z,11.80
2018-04-16T05:43:28.970Z,12.43
2018-04-16T05:45:58.174Z,13.43
2018-04-16T05:48:27.287Z,13.00
2018-04-16T05:50:56.400Z,12.47
2018-04-16T05:53:25.257Z,12.80
2018-04-16T05:55:54.376Z,13.70
2018-04-16T05:58:23.689Z,13.57
2018-04-16T06:00:52.732Z,13.20
2018-04-16T06:03:24.104Z,13.47
2018-04-16T06:05:53.907Z,14.20
2018-04-16T06:08:22.924Z,14.07
2018-04-16T06:10:52.329Z,12.50
2018-04-16T06:13:21.395Z,12.80
2018-04-16T06:15:50.529Z,12.63
2018-04-16T06:18:19.827Z,12.70
2018-04-16T06:20:48.915Z,11.40
2018-04-16T06:23:18.111Z,11.47
2018-04-16T06:25:46.987Z,11.47
2018-04-16T06:28:15.964Z,12.67
2018-04-16T06:30:45.231Z,13.40
2018-04-16T06:33:15.921Z,12.43
2018-04-16T06:35:49.616Z,12.30
2018-04-16T06:38:22.920Z,12.40
2018-04-16T06:40:52.620Z,12.80
2018-04-16T06:43:26.874Z,13.40
2018-04-16T06:45:55.880Z,12.00
2018-04-16T06:48:24.841Z,12.10
2018-04-16T06:50:53.684Z,12.47
2018-04-16T06:53:22.529Z,14.97
2018-04-16T06:55:52.503Z,14.83
2018-04-16T06:58:21.781Z,13.30
2018-04-16T07:00:51.669Z,13.50
2018-04-16T07:06:16.371Z,14.17
2018-04-16T07:08:45.916Z,13.27
2018-04-16T07:11:15.076Z,12.93
2018-04-16T07:13:44.364Z,13.13
2018-04-16T07:16:13.315Z,12.60
2018-04-16T07:18:42.771Z,13.90
2018-04-16T07:21:11.844Z,13.37
2018-04-16T07:23:40.944Z,14.10
2018-04-16T07:26:10.118Z,12.33
2018-04-16T07:28:41.321Z,13.17
2018-04-16T07:31:16.251Z,12.10
2018-04-16T07:33:50.899Z,12.80
2018-04-16T07:36:25.521Z,13.00
2018-04-16T07:39:00.270Z,13.43
2018-04-16T07:41:34.948Z,13.43
2018-04-16T07:44:10.101Z,12.67
2018-04-16T07:46:44.632Z,13.10
2018-04-16T07:49:19.411Z,13.23
2018-04-16T07:51:54.191Z,12.70
2018-04-16T07:54:29.014Z,13.20
2018-04-16T07:57:04.409Z,12.90
2018-04-16T07:59:39.192Z,13.10
2018-04-16T08:02:13.692Z,13.43
2018-04-16T08:04:48.313Z,12.70
2018-04-16T08:07:23.085Z,11.97
2018-04-16T08:09:57.778Z,13.20
2018-04-16T08:12:38.272Z,13.20
2018-04-16T08:15:12.890Z,12.30
2018-04-16T08:17:47.614Z,11.70
2018-04-16T08:20:22.939Z,12.07
2018-04-16T08:22:58.289Z,12.70
2018-04-16T08:25:32.949Z,12.50
2018-04-16T08:28:08.098Z,11.53
2018-04-16T08:30:42.364Z,12.10
2018-04-16T08:33:17.099Z,13.47
2018-04-16T08:35:51.460Z,12.70
2018-04-16T08:38:26.389Z,13.30
2018-04-16T08:41:01.120Z,13.07
2018-04-16T08:43:30.059Z,12.70
2018-04-16T08:46:05.708Z,13.53
2018-04-16T08:48:40.541Z,13.20
2018-04-16T08:51:15.272Z,13.77
2018-04-16T08:53:49.988Z,14.30
2018-04-16T08:56:25.446Z,13.53
2018-04-16T08:59:00.123Z,13.33
2018-04-16T09:01:34.776Z,15.63
2018-04-16T09:04:09.250Z,16.30
2018-04-16T09:06:44.026Z,15.23
2018-04-16T09:09:18.820Z,16.23
2018-04-16T09:11:53.640Z,15.97
2018-04-16T09:14:28.289Z,17.97
2018-04-16T09:17:02.846Z,16.47
2018-04-16T09:19:37.606Z,16.10
2018-04-16T09:22:12.440Z,15.00
2018-04-16T09:24:47.032Z,15.73
2018-04-16T09:27:21.741Z,15.73
2018-04-16T09:29:57.087Z,17.20
2018-04-16T09:32:31.868Z,17.10
2018-04-16T09:35:07.282Z,17.40
2018-04-16T09:37:36.423Z,16.73
2018-04-16T09:40:12.176Z,16.30
2018-04-16T09:42:46.809Z,14.83
2018-04-16T09:45:21.666Z,15.53
2018-04-16T09:47:57.287Z,15.93
2018-04-16T09:50:32.126Z,13.83
2018-04-16T09:53:01.315Z,8.97
2018-04-16T09:55:35.920Z,6.17
2018-04-16T09:58:10.585Z,6.60
2018-04-16T10:00:51.138Z,6.20
2018-04-16T10:03:26.361Z,6.97
2018-04-16T10:06:00.910Z,8.20
2018-04-16T10:08:35.704Z,8.13
2018-04-16T10:11:10.399Z,9.90
2018-04-16T10:13:45.049Z,9.80
2018-04-16T10:16:20.256Z,9.50
2018-04-16T10:18:49.401Z,9.30
2018-04-16T10:21:24.160Z,9.63
2018-04-16T10:23:58.986Z,9.90
2018-04-16T10:26:33.742Z,9.57
2018-04-16T10:29:08.347Z,8.33
2018-04-16T10:31:42.755Z,7.13
2018-04-16T10:34:17.226Z,7.20
2018-04-16T10:36:51.676Z,6.33
2018-04-16T10:39:26.590Z,6.20
2018-04-16T10:42:01.273Z,6.23
2018-04-16T10:44:36.491Z,6.27
2018-04-16T10:47:11.275Z,5.60
2018-04-16T10:49:40.930Z,6.30
2018-04-16T10:52:15.830Z,6.70
2018-04-16T10:54:51.228Z,6.00
2018-04-16T10:57:25.865Z,6.70
2018-04-16T11:00:00.478Z,6.07
2018-04-16T11:02:35.064Z,6.10
2018-04-16T11:05:09.547Z,5.43
2018-04-16T11:07:44.403Z,5.73
2018-04-16T11:10:19.166Z,8.57
2018-04-16T11:12:54.727Z,7.70
2018-04-16T11:15:29.442Z,7.97
2018-04-16T11:18:04.665Z,9.03
2018-04-16T11:20:39.706Z,8.30
2018-04-16T11:23:14.221Z,8.93
2018-04-16T11:25:48.954Z,8.40
2018-04-16T11:28:23.313Z,7.90
2018-04-16T11:30:58.213Z,7.20
2018-04-16T11:33:32.599Z,7.20
2018-04-16T11:36:07.357Z,6.60
2018-04-16T11:38:42.132Z,7.47
2018-04-16T11:41:16.798Z,6.30
2018-04-16T11:43:51.340Z,7.43
2018-04-16T11:46:26.069Z,7.27
2018-04-16T11:49:01.491Z,6.43
2018-04-16T11:51:36.117Z,10.40
2018-04-16T11:54:10.974Z,10.80
2018-04-16T11:56:45.625Z,10.30
2018-04-16T11:59:20.916Z,9.33
2018-04-16T12:01:55.626Z,10.00
2018-04-16T12:04:31.749Z,8.97
2018-04-16T12:07:07.273Z,8.70
2018-04-16T12:09:42.093Z,7.63
2018-04-16T12:12:12.658Z,7.20
2018-04-16T12:14:41.677Z,7.60
2018-04-16T12:17:12.147Z,7.73
2018-04-16T12:19:41.081Z,8.53
2018-04-16T12:22:10.946Z,7.67
2018-04-16T12:24:44.543Z,7.30
2018-04-16T12:27:18.598Z,6.67
2018-04-16T12:29:48.401Z,5.90
2018-04-16T12:32:19.700Z,6.30
2018-04-16T12:34:49.405Z,5.80
2018-04-16T12:37:18.550Z,5.90
2018-04-16T12:39:47.647Z,5.43
2018-04-16T12:42:17.540Z,5.47
2018-04-16T12:44:46.806Z,5.97
2018-04-16T12:47:16.227Z,5.70
2018-04-16T12:49:45.525Z,4.90
2018-04-16T12:52:15.425Z,6.57
2018-04-16T12:54:44.555Z,6.00
2018-04-16T12:57:13.656Z,6.13
2018-04-16T12:59:42.755Z,5.70
2018-04-16T13:02:12.312Z,5.17
2018-04-16T13:04:41.344Z,4.60
2018-04-16T13:07:11.581Z,4.37
2018-04-16T13:09:41.438Z,4.23
2018-04-16T13:12:11.267Z,3.80
2018-04-16T13:14:40.976Z,4.03
2018-04-16T13:17:10.626Z,4.03
2018-04-16T13:19:39.634Z,4.43
2018-04-16T13:22:08.674Z,4.00
2018-04-16T13:24:37.792Z,4.10
2018-04-16T13:27:06.900Z,3.70
2018-04-16T13:29:36.120Z,4.87
2018-04-16T13:32:05.267Z,3.70
2018-04-16T13:34:34.441Z,3.83
2018-04-16T13:37:03.457Z,3.80
2018-04-16T13:39:35.821Z,3.83
2018-04-16T13:42:05.705Z,4.00
2018-04-16T13:44:34.912Z,3.70
2018-04-16T13:47:03.975Z,3.70
2018-04-16T13:49:33.165Z,3.40
2018-04-16T13:52:02.698Z,3.60
2018-04-16T13:54:31.833Z,3.40
2018-04-16T13:57:01.035Z,3.50
2018-04-16T13:59:30.169Z,3.40
2018-04-16T14:01:59.961Z,3.57
2018-04-16T14:04:29.026Z,3.70
2018-04-16T14:06:59.013Z,3.10
2018-04-16T14:09:28.177Z,3.27
2018-04-16T14:11:57.507Z,4.20
2018-04-16T14:14:27.725Z,4.20
2018-04-16T14:16:56.891Z,4.60
2018-04-16T14:19:25.950Z,4.07
2018-04-16T14:21:55.068Z,4.23
2018-04-16T14:24:24.005Z,4.93
2018-04-16T14:26:54.087Z,3.70
2018-04-16T14:29:23.304Z,3.97
2018-04-16T14:31:52.538Z,4.90
2018-04-16T14:34:21.934Z,4.80
2018-04-16T14:36:51.083Z,4.90
2018-04-16T14:39:20.375Z,4.73
2018-04-16T14:41:49.510Z,5.50
2018-04-16T14:44:18.881Z,4.57
2018-04-16T14:46:48.363Z,5.03
2018-04-16T14:49:18.758Z,5.00
2018-04-16T14:51:47.908Z,5.17
2018-04-16T14:54:16.996Z,4.37
2018-04-16T14:56:46.921Z,4.30
2018-04-16T14:59:16.981Z,4.13
2018-04-16T15:01:46.099Z,4.80
2018-04-16T15:04:14.966Z,4.20
2018-04-16T15:06:44.123Z,4.33
2018-04-16T15:09:13.932Z,4.53
2018-04-16T15:11:43.016Z,4.30
2018-04-16T15:14:12.098Z,3.80
2018-04-16T15:16:41.304Z,5.60
2018-04-16T15:19:10.442Z,4.53
2018-04-16T15:21:41.246Z,4.67
2018-04-16T15:24:10.629Z,3.83
2018-04-16T15:26:40.052Z,5.17
2018-04-16T15:29:09.287Z,5.10
2018-04-16T15:31:40.614Z,5.50
2018-04-16T15:34:11.340Z,5.23
2018-04-16T15:36:40.334Z,5.30
2018-04-16T15:39:09.365Z,4.87
2018-04-16T15:41:38.616Z,4.90
2018-04-16T15:44:07.551Z,4.50
2018-04-16T15:46:36.674Z,4.80
2018-04-16T15:49:05.798Z,3.87
2018-04-16T15:51:34.815Z,4.17
2018-04-16T15:54:04.184Z,5.20
2018-04-16T15:56:33.257Z,4.33
2018-04-16T15:59:02.354Z,4.40
2018-04-16T16:01:31.576Z,4.40
2018-04-16T16:04:00.727Z,4.20
2018-04-16T16:06:29.852Z,4.50
2018-04-16T16:08:59.062Z,3.90
2018-04-16T16:11:28.158Z,4.47
2018-04-16T16:13:57.223Z,5.07
2018-04-16T16:16:27.686Z,4.90
2018-04-16T16:18:56.754Z,5.40
2018-04-16T16:21:25.674Z,5.00
2018-04-16T16:23:54.784Z,4.57
2018-04-16T16:26:23.836Z,4.63
2018-04-16T16:28:53.054Z,5.17
2018-04-16T16:31:23.447Z,4.13
2018-04-16T16:33:52.702Z,4.97
2018-04-16T16:36:21.764Z,4.27
2018-04-16T16:38:52.381Z,4.50
2018-04-16T16:41:21.555Z,3.90
2018-04-16T16:43:50.901Z,3.80
2018-04-16T16:46:20.095Z,4.43
2018-04-16T16:48:49.291Z,3.60
2018-04-16T16:51:18.249Z,3.50
2018-04-16T16:53:47.367Z,3.37
2018-04-16T16:56:16.608Z,3.90
2018-04-16T16:58:45.661Z,3.50
2018-04-16T17:01:16.961Z,3.13
2018-04-16T17:03:45.985Z,3.53
2018-04-16T17:06:14.838Z,2.60
2018-04-16T17:08:43.866Z,3.50
2018-04-16T17:11:12.959Z,3.00
2018-04-16T17:13:47.731Z,3.10
2018-04-16T17:16:22.388Z,3.50
2018-04-16T17:18:57.145Z,3.80
2018-04-16T17:21:32.719Z,3.77
2018-04-16T17:24:07.302Z,3.97
2018-04-16T17:26:41.889Z,4.03
2018-04-16T17:29:16.530Z,4.53
2018-04-16T17:31:51.218Z,5.07
2018-04-16T17:34:26.027Z,4.70
2018-04-16T17:37:00.757Z,5.00
2018-04-16T17:39:35.347Z,5.03
2018-04-16T17:42:10.023Z,4.97
2018-04-16T17:44:45.314Z,4.77
2018-04-16T17:47:19.808Z,4.67
2018-04-16T17:49:54.657Z,5.07
2018-04-16T17:52:29.283Z,4.90
2018-04-16T17:55:03.577Z,5.30
2018-04-16T17:57:39.153Z,4.67
2018-04-16T18:00:13.774Z,4.57
2018-04-16T18:02:48.358Z,3.93
2018-04-16T18:05:23.858Z,5.07
2018-04-16T18:07:58.439Z,4.60
2018-04-16T18:10:33.251Z,4.50
2018-04-16T18:13:08.344Z,4.67
2018-04-16T18:15:44.053Z,3.80
2018-04-16T18:18:15.455Z,4.23
2018-04-16T18:20:50.173Z,4.10
2018-04-16T18:23:24.890Z,6.00
2018-04-16T18:25:59.822Z,4.70
2018-04-16T18:28:29.100Z,5.27
2018-04-16T18:30:58.258Z,5.37
2018-04-16T18:33:27.475Z,4.50
2018-04-16T18:35:56.692Z,5.40
2018-04-16T18:41:19.920Z,6.63
2018-04-16T18:43:48.874Z,6.50
2018-04-16T18:46:18.004Z,6.83
2018-04-16T18:48:48.720Z,7.70
2018-04-16T18:51:24.031Z,7.70
2018-04-16T18:53:58.542Z,7.70
2018-04-16T18:56:27.714Z,8.07
2018-04-16T18:58:56.625Z,7.43
2018-04-16T19:01:26.585Z,8.13
2018-04-16T19:03:55.725Z,7.30
2018-04-16T19:06:24.890Z,6.67
2018-04-16T19:08:54.045Z,6.83
2018-04-16T19:11:23.204Z,6.50
2018-04-16T19:13:52.599Z,6.70
2018-04-16T19:16:23.120Z,7.13
2018-04-16T19:18:52.094Z,6.30
2018-04-16T19:21:26.582Z,7.00
2018-04-16T19:23:55.683Z,6.80
2018-04-16T19:26:24.818Z,6.10
2018-04-16T19:28:53.979Z,6.63
2018-04-16T19:31:23.295Z,5.90
2018-04-16T19:33:57.922Z,5.50
2018-04-16T19:36:33.718Z,7.40
2018-04-16T19:39:08.621Z,6.37
2018-04-16T19:41:48.958Z,7.13
2018-04-16T19:44:24.183Z,6.10
2018-04-16T19:46:58.918Z,6.53
2018-04-16T19:49:39.947Z,7.10
2018-04-16T19:52:14.676Z,7.33
2018-04-16T19:54:49.444Z,7.17
2018-04-16T19:57:29.700Z,7.63
2018-04-16T20:00:04.408Z,6.80
2018-04-16T20:02:44.782Z,7.00
2018-04-16T20:05:19.511Z,7.40
2018-04-16T20:07:54.274Z,7.60
2018-04-16T20:10:28.988Z,6.93
2018-04-16T20:13:03.525Z,6.80
2018-04-16T20:15:38.994Z,7.40
2018-04-16T20:18:13.766Z,7.37
2018-04-16T20:20:48.441Z,8.50
2018-04-16T20:23:23.361Z,7.63
2018-04-16T20:25:57.959Z,7.47
2018-04-16T20:28:28.313Z,7.80
2018-04-16T20:31:02.899Z,8.03
2018-04-16T20:33:36.163Z,8.57
2018-04-16T20:36:10.869Z,9.00
2018-04-16T20:38:45.594Z,8.60
2018-04-16T20:41:20.992Z,9.23
2018-04-16T20:43:55.635Z,8.70
2018-04-16T20:46:30.286Z,8.93
2018-04-16T20:49:04.977Z,8.20
2018-04-16T20:51:39.582Z,9.23
2018-04-16T20:54:10.074Z,9.70
2018-04-16T20:56:45.563Z,9.57
2018-04-16T20:59:21.010Z,9.70
2018-04-16T21:01:56.481Z,9.17
2018-04-16T21:04:31.128Z,9.20
2018-04-16T21:07:05.944Z,9.57
2018-04-16T21:09:40.842Z,10.50
2018-04-16T21:12:15.831Z,10.90
2018-04-16T21:14:50.561Z,10.20
2018-04-16T21:17:25.289Z,9.90
2018-04-16T21:20:01.120Z,10.30
2018-04-16T21:22:36.879Z,10.03
2018-04-16T21:25:12.163Z,10.43
2018-04-16T21:27:46.853Z,10.30
2018-04-16T21:30:21.435Z,10.50
2018-04-16T21:32:56.086Z,10.90
2018-04-16T21:35:30.692Z,10.40
2018-04-16T21:38:05.394Z,10.90
2018-04-16T21:40:40.922Z,10.50
2018-04-16T21:43:15.577Z,9.80
2018-04-16T21:45:50.459Z,10.80
2018-04-16T21:48:24.986Z,10.07
2018-04-16T21:50:59.561Z,10.93
2018-04-16T21:53:34.168Z,10.53
2018-04-16T21:56:09.071Z,11.60
2018-04-16T21:58:43.901Z,10.67
2018-04-16T22:01:18.521Z,10.67
2018-04-16T22:03:53.075Z,11.33
2018-04-16T22:06:27.710Z,10.93
2018-04-16T22:09:02.452Z,11.57
2018-04-16T22:11:37.032Z,11.23
2018-04-16T22:14:11.681Z,11.47
2018-04-16T22:16:46.378Z,11.03
2018-04-16T22:19:21.145Z,11.10
2018-04-16T22:21:55.778Z,10.90
2018-04-16T22:24:30.585Z,11.33
2018-04-16T22:27:05.444Z,10.50
2018-04-16T22:29:40.759Z,10.37
2018-04-16T22:32:15.530Z,9.53
2018-04-16T22:34:49.879Z,10.30
2018-04-16T22:37:24.689Z,10.30
2018-04-16T22:39:59.504Z,11.03
2018-04-16T22:42:34.233Z,10.37
2018-04-16T22:45:09.009Z,10.43
2018-04-16T22:47:44.644Z,10.63
2018-04-16T22:50:19.284Z,10.60
2018-04-16T22:52:53.879Z,10.97
2018-04-16T22:55:28.331Z,10.73
2018-04-16T22:58:03.980Z,10.40
2018-04-16T23:00:38.946Z,10.40
2018-04-16T23:03:13.550Z,10.30
2018-04-16T23:05:48.155Z,9.80
2018-04-16T23:08:22.823Z,10.47
2018-04-16T23:10:57.518Z,9.80
2018-04-16T23:13:32.841Z,10.20
2018-04-16T23:19:06.850Z,10.90
2018-04-16T23:21:41.993Z,10.43
2018-04-16T23:27:20.414Z,10.27
2018-04-16T23:29:55.202Z,11.30
2018-04-16T23:32:29.816Z,12.40
2018-04-16T23:35:04.582Z,12.33
2018-04-16T23:37:39.282Z,11.00
2018-04-16T23:40:13.987Z,10.60
2018-04-16T23:42:45.300Z,10.57
2018-04-16T23:45:19.964Z,11.00
2018-04-16T23:47:54.604Z,11.23
2018-04-16T23:50:29.322Z,11.50
2018-04-16T23:53:04.028Z,11.03
2018-04-16T23:55:38.790Z,11.90
2018-04-16T23:58:13.359Z,12.80
